createdAt,value
2022-11-23T00:01:35.919Z,4.59
2022-11-23T00:04:06.596Z,4.56
2022-11-23T00:06:33.314Z,4.52
2022-11-23T00:08:59.851Z,4.52
2022-11-23T00:11:26.873Z,4.61
2022-11-23T00:13:53.733Z,4.56
2022-11-23T00:16:20.987Z,4.57
2022-11-23T00:18:47.630Z,4.55
2022-11-23T00:21:17.841Z,4.63
2022-11-23T00:23:44.584Z,4.62
2022-11-23T00:26:11.267Z,4.60
2022-11-23T00:28:39.937Z,4.61
2022-11-23T00:31:07.158Z,4.64
2022-11-23T00:33:33.719Z,4.63
2022-11-23T00:36:00.771Z,4.60
2022-11-23T00:38:27.429Z,4.63
2022-11-23T00:41:00.281Z,4.65
2022-11-23T00:43:27.116Z,4.67
2022-11-23T00:46:12.430Z,4.69
2022-11-23T00:48:38.940Z,4.63
2022-11-23T00:51:06.439Z,4.64
2022-11-23T00:53:32.977Z,4.68
2022-11-23T00:55:59.430Z,4.65
2022-11-23T00:58:26.065Z,4.63
2022-11-23T01:01:00.272Z,4.65
2022-11-23T01:03:26.739Z,4.64
2022-11-23T01:05:53.135Z,4.63
2022-11-23T01:08:19.552Z,4.64
2022-11-23T01:10:46.173Z,4.66
2022-11-23T01:13:12.622Z,4.67
2022-11-23T01:15:39.003Z,4.63
2022-11-23T01:18:05.480Z,4.60
2022-11-23T01:20:32.035Z,4.59
2022-11-23T01:22:58.470Z,4.59
2022-11-23T01:25:24.898Z,4.67
2022-11-23T01:27:51.294Z,4.67
2022-11-23T01:30:17.800Z,4.69
2022-11-23T01:32:44.229Z,4.70
2022-11-23T01:35:10.701Z,4.70
2022-11-23T01:37:37.109Z,4.70
2022-11-23T01:40:03.668Z,4.69
2022-11-23T01:42:53.737Z,4.67
2022-11-23T01:45:29.194Z,4.65
2022-11-23T01:47:55.616Z,4.63
2022-11-23T01:50:22.022Z,4.71
2022-11-23T01:52:48.455Z,4.68
2022-11-23T01:55:14.927Z,4.68
2022-11-23T01:57:41.933Z,4.62
2022-11-23T02:00:08.757Z,4.60
2022-11-23T02:02:35.201Z,4.68
2022-11-23T02:05:01.638Z,4.73
2022-11-23T02:07:28.166Z,4.71
2022-11-23T02:09:54.642Z,4.68
2022-11-23T02:12:21.038Z,4.64
2022-11-23T02:14:47.473Z,4.65
2022-11-23T02:17:14.158Z,4.63
2022-11-23T02:19:43.796Z,4.66
2022-11-23T02:22:12.018Z,4.67
2022-11-23T02:24:40.343Z,4.68
2022-11-23T02:27:07.873Z,4.68
2022-11-23T02:29:34.709Z,4.68
2022-11-23T02:32:01.231Z,4.69
2022-11-23T02:48:22.057Z,4.71
2022-11-23T02:50:48.492Z,4.69
2022-11-23T02:53:15.136Z,4.69
2022-11-23T02:55:41.605Z,4.70
2022-11-23T02:58:08.024Z,4.66
2022-11-23T03:00:34.535Z,4.77
2022-11-23T03:03:01.325Z,4.70
2022-11-23T03:05:27.851Z,4.75
2022-11-23T03:07:54.282Z,4.81
2022-11-23T03:10:20.847Z,4.79
2022-11-23T03:12:47.351Z,4.76
2022-11-23T03:15:13.795Z,4.74
2022-11-23T03:17:40.213Z,4.69
2022-11-23T03:20:06.997Z,4.78
2022-11-23T03:22:33.987Z,4.71
2022-11-23T03:25:00.444Z,4.68
2022-11-23T03:27:26.863Z,4.67
2022-11-23T03:29:53.336Z,4.66
2022-11-23T03:32:19.787Z,4.73
2022-11-23T03:34:46.264Z,4.69
2022-11-23T03:37:12.790Z,4.78
2022-11-23T03:39:41.715Z,4.76
2022-11-23T03:42:12.312Z,4.77
2022-11-23T03:44:38.767Z,4.77
2022-11-23T03:47:05.239Z,4.76
2022-11-23T03:49:31.889Z,4.73
2022-11-23T03:51:58.538Z,4.75
2022-11-23T03:54:24.971Z,4.75
2022-11-23T03:56:51.908Z,4.74
2022-11-23T03:59:18.354Z,4.74
2022-11-23T04:01:44.790Z,4.75
2022-11-23T04:04:11.269Z,4.74
2022-11-23T04:06:37.714Z,4.67
2022-11-23T04:09:04.167Z,4.70
2022-11-23T04:11:32.536Z,4.69
2022-11-23T04:13:58.969Z,4.68
2022-11-23T04:16:25.415Z,4.67
2022-11-23T04:18:51.827Z,4.69
2022-11-23T04:21:18.267Z,4.69
2022-11-23T04:23:44.638Z,4.68
2022-11-23T04:26:11.131Z,4.68
2022-11-23T04:28:37.553Z,4.63
2022-11-23T04:31:04.005Z,4.65
2022-11-23T04:33:31.723Z,4.67
2022-11-23T04:35:58.376Z,4.64
2022-11-23T04:38:24.827Z,4.66
2022-11-23T04:40:51.308Z,4.71
2022-11-23T04:43:17.734Z,4.67
2022-11-23T04:45:44.730Z,4.70
2022-11-23T04:48:11.184Z,4.70
2022-11-23T04:50:40.365Z,4.72
2022-11-23T04:53:07.130Z,4.65
2022-11-23T04:55:33.784Z,4.61
2022-11-23T04:58:00.261Z,4.64
2022-11-23T05:00:26.939Z,4.64
2022-11-23T05:02:53.386Z,4.68
2022-11-23T05:05:19.905Z,4.66
2022-11-23T05:07:46.380Z,4.73
2022-11-23T05:10:12.902Z,4.75
2022-11-23T05:12:39.360Z,4.70
2022-11-23T05:15:06.068Z,4.69
2022-11-23T05:17:33.712Z,4.76
2022-11-23T05:20:00.148Z,4.71
2022-11-23T05:22:26.588Z,4.67
2022-11-23T05:24:53.002Z,4.66
2022-11-23T05:27:19.451Z,4.60
2022-11-23T05:29:45.909Z,4.56
2022-11-23T05:32:12.392Z,4.65
2022-11-23T05:34:38.827Z,4.65
2022-11-23T05:37:05.427Z,4.68
2022-11-23T05:39:32.148Z,4.61
2022-11-23T05:41:58.784Z,4.57
2022-11-23T05:44:25.205Z,4.56
2022-11-23T05:46:51.665Z,4.65
2022-11-23T05:49:18.049Z,4.60
2022-11-23T05:51:44.585Z,4.62
2022-11-23T05:54:11.080Z,4.59
2022-11-23T05:56:40.305Z,4.60
2022-11-23T05:59:08.054Z,4.60
2022-11-23T06:01:34.554Z,4.56
2022-11-23T06:04:01.068Z,4.51
2022-11-23T06:06:27.549Z,4.58
2022-11-23T06:08:53.946Z,4.64
2022-11-23T06:11:20.429Z,4.64
2022-11-23T06:13:47.803Z,4.58
2022-11-23T06:16:14.230Z,4.51
2022-11-23T06:18:40.681Z,4.55
2022-11-23T06:21:07.159Z,4.60
2022-11-23T06:23:33.581Z,4.56
2022-11-23T06:26:00.494Z,4.53
2022-11-23T06:28:28.910Z,4.53
2022-11-23T06:30:55.807Z,4.59
2022-11-23T06:33:22.321Z,4.61
2022-11-23T06:35:52.790Z,4.65
2022-11-23T06:38:19.274Z,4.62
2022-11-23T06:40:45.669Z,4.56
2022-11-23T06:43:12.101Z,4.57
2022-11-23T06:45:38.556Z,4.55
2022-11-23T06:48:05.277Z,4.56
2022-11-23T06:50:31.744Z,4.65
2022-11-23T06:52:58.362Z,4.60
2022-11-23T06:55:25.078Z,4.57
2022-11-23T06:57:51.555Z,4.57
2022-11-23T07:00:18.554Z,4.57
2022-11-23T07:02:44.994Z,4.57
2022-11-23T07:05:11.458Z,4.51
2022-11-23T07:07:37.935Z,4.43
2022-11-23T07:10:07.269Z,4.49
2022-11-23T07:12:33.963Z,4.46
2022-11-23T07:15:00.458Z,4.37
2022-11-23T07:17:26.919Z,4.31
2022-11-23T07:19:53.368Z,4.25
2022-11-23T07:22:19.844Z,4.19
2022-11-23T07:24:47.008Z,4.16
2022-11-23T07:27:13.655Z,4.04
2022-11-23T07:29:40.095Z,4.01
2022-11-23T07:32:08.544Z,4.08
2022-11-23T07:34:35.002Z,4.06
2022-11-23T07:37:02.341Z,4.06
2022-11-23T07:39:54.981Z,4.00
2022-11-23T07:42:32.312Z,3.91
2022-11-23T07:45:01.259Z,3.97
2022-11-23T07:47:27.720Z,3.95
2022-11-23T07:49:54.232Z,4.03
2022-11-23T07:52:20.642Z,3.98
2022-11-23T07:54:47.099Z,4.12
2022-11-23T07:57:13.545Z,4.11
2022-11-23T07:59:39.975Z,4.18
2022-11-23T08:02:06.745Z,4.12
2022-11-23T08:04:33.460Z,4.14
2022-11-23T08:07:00.851Z,4.15
2022-11-23T08:09:27.316Z,4.11
2022-11-23T08:11:53.741Z,4.13
2022-11-23T08:14:20.233Z,4.22
2022-11-23T08:16:50.922Z,4.27
2022-11-23T08:19:17.502Z,4.28
2022-11-23T08:21:44.591Z,4.38
2022-11-23T08:24:11.292Z,4.35
2022-11-23T08:26:37.755Z,4.47
2022-11-23T08:29:04.599Z,4.65
2022-11-23T08:31:31.245Z,4.71
2022-11-23T08:34:03.024Z,4.89
2022-11-23T08:36:30.059Z,4.87
2022-11-23T08:38:56.498Z,4.75
2022-11-23T08:41:22.931Z,4.64
2022-11-23T08:43:49.544Z,4.56
2022-11-23T08:46:16.051Z,4.52
2022-11-23T08:48:42.666Z,4.51
2022-11-23T08:51:09.469Z,4.50
2022-11-23T08:53:36.204Z,4.44
2022-11-23T08:56:03.467Z,4.47
2022-11-23T08:58:29.965Z,4.65
2022-11-23T09:00:56.383Z,5.07
2022-11-23T09:03:22.830Z,5.48
2022-11-23T09:05:51.105Z,5.98
2022-11-23T09:08:17.878Z,6.93
2022-11-23T09:10:44.310Z,7.62
2022-11-23T09:13:10.827Z,7.85
2022-11-23T09:15:37.257Z,8.34
2022-11-23T09:18:03.747Z,8.03
2022-11-23T09:20:30.747Z,7.60
2022-11-23T09:22:57.205Z,7.25
2022-11-23T09:25:23.887Z,7.05
2022-11-23T09:27:51.637Z,7.05
2022-11-23T09:30:18.191Z,7.08
2022-11-23T09:32:44.647Z,7.07
2022-11-23T09:35:11.130Z,6.58
2022-11-23T09:37:37.611Z,6.97
2022-11-23T09:40:04.404Z,7.75
2022-11-23T09:42:49.760Z,8.59
2022-11-23T09:45:21.604Z,8.97
2022-11-23T09:47:54.343Z,8.92
2022-11-23T09:50:24.211Z,8.40
2022-11-23T09:52:50.645Z,8.94
2022-11-23T09:55:22.357Z,8.39
2022-11-23T09:57:48.822Z,8.16
2022-11-23T10:00:24.610Z,7.43
2022-11-23T10:02:51.049Z,7.14
2022-11-23T10:05:19.071Z,6.76
2022-11-23T10:08:08.792Z,6.42
2022-11-23T10:10:41.296Z,6.59
2022-11-23T10:13:15.852Z,6.34
2022-11-23T10:15:45.599Z,6.22
2022-11-23T10:18:27.334Z,5.96
2022-11-23T10:21:20.245Z,5.71
2022-11-23T10:23:52.505Z,5.67
2022-11-23T10:26:20.000Z,5.56
2022-11-23T10:28:46.890Z,5.43
2022-11-23T10:31:16.739Z,5.44
2022-11-23T10:33:52.329Z,5.49
2022-11-23T10:36:18.787Z,5.63
2022-11-23T10:38:45.373Z,5.68
2022-11-23T10:41:13.170Z,5.72
2022-11-23T10:43:55.076Z,5.79
2022-11-23T10:46:29.458Z,5.94
2022-11-23T10:48:56.100Z,6.13
2022-11-23T10:51:32.833Z,6.26
2022-11-23T10:54:05.471Z,6.21
2022-11-23T10:56:32.438Z,6.15
2022-11-23T10:58:58.939Z,6.39
2022-11-23T11:01:26.415Z,6.36
2022-11-23T11:03:53.618Z,6.38
2022-11-23T11:06:24.770Z,6.42
2022-11-23T11:09:00.445Z,6.49
2022-11-23T11:11:33.073Z,6.51
2022-11-23T11:14:05.577Z,6.68
2022-11-23T11:16:38.343Z,6.80
2022-11-23T11:19:25.797Z,6.77
2022-11-23T11:21:52.306Z,6.63
2022-11-23T11:24:20.954Z,6.40
2022-11-23T11:26:48.798Z,6.44
2022-11-23T11:29:24.673Z,6.36
2022-11-23T11:31:57.309Z,6.42
2022-11-23T11:34:35.767Z,6.29
2022-11-23T11:37:20.976Z,6.26
2022-11-23T11:40:06.198Z,6.29
2022-11-23T11:42:52.692Z,6.00
2022-11-23T11:45:26.210Z,5.95
2022-11-23T11:48:13.560Z,5.81
2022-11-23T11:50:46.043Z,5.85
2022-11-23T11:53:13.753Z,5.98
2022-11-23T11:55:59.074Z,6.10
2022-11-23T11:58:27.929Z,6.37
2022-11-23T12:00:58.085Z,6.30
2022-11-23T12:03:34.641Z,6.16
2022-11-23T12:06:06.024Z,6.25
2022-11-23T12:08:37.853Z,6.51
2022-11-23T12:11:05.826Z,6.26
2022-11-23T12:13:33.094Z,6.29
2022-11-23T12:16:02.609Z,6.32
2022-11-23T12:18:32.326Z,6.43
2022-11-23T12:21:14.118Z,6.22
2022-11-23T12:23:52.756Z,6.15
2022-11-23T12:26:24.528Z,6.28
2022-11-23T12:29:25.307Z,6.16
2022-11-23T12:31:54.259Z,6.25
2022-11-23T12:34:33.332Z,6.33
2022-11-23T12:36:59.919Z,6.26
2022-11-23T12:39:26.307Z,6.34
2022-11-23T12:41:58.877Z,6.47
2022-11-23T12:44:37.466Z,6.55
2022-11-23T12:47:08.381Z,6.52
2022-11-23T12:49:44.362Z,6.33
2022-11-23T12:52:23.085Z,6.16
2022-11-23T12:54:58.641Z,5.97
2022-11-23T12:57:26.909Z,5.91
2022-11-23T13:00:04.882Z,5.83
2022-11-23T13:02:50.313Z,5.78
2022-11-23T13:05:28.971Z,5.81
2022-11-23T13:07:58.440Z,5.89
2022-11-23T13:10:36.402Z,6.01
2022-11-23T13:13:07.811Z,6.14
2022-11-23T13:15:56.810Z,6.05
2022-11-23T13:18:32.600Z,5.99
2022-11-23T13:21:25.447Z,6.10
2022-11-23T13:23:51.893Z,6.16
2022-11-23T13:26:22.275Z,6.01
2022-11-23T13:28:49.451Z,5.95
2022-11-23T13:31:16.349Z,6.00
2022-11-23T13:33:43.769Z,6.20
2022-11-23T13:36:16.671Z,6.30
2022-11-23T13:38:46.138Z,6.32
2022-11-23T13:41:33.706Z,6.24
2022-11-23T13:44:18.617Z,6.10
2022-11-23T13:46:45.352Z,6.10
2022-11-23T13:49:29.198Z,6.21
2022-11-23T13:52:05.954Z,6.18
2022-11-23T13:54:32.726Z,6.07
2022-11-23T13:57:01.149Z,6.00
2022-11-23T13:59:31.474Z,5.93
2022-11-23T14:02:01.109Z,5.90
2022-11-23T14:04:31.826Z,6.00
2022-11-23T14:07:12.783Z,5.93
2022-11-23T14:09:42.908Z,5.75
2022-11-23T14:12:14.860Z,5.58
2022-11-23T14:14:49.786Z,5.48
2022-11-23T14:17:16.193Z,5.47
2022-11-23T14:20:01.354Z,5.45
2022-11-23T14:22:30.897Z,5.45
2022-11-23T14:24:57.321Z,5.45
2022-11-23T14:27:47.962Z,5.39
2022-11-23T14:30:20.834Z,5.41
2022-11-23T14:32:53.472Z,5.41
2022-11-23T14:35:40.757Z,5.33
2022-11-23T14:38:13.589Z,5.29
2022-11-23T14:40:46.281Z,5.32
2022-11-23T14:43:13.355Z,5.31
2022-11-23T14:45:39.931Z,5.34
2022-11-23T14:48:25.190Z,5.44
2022-11-23T14:50:56.255Z,5.40
2022-11-23T14:53:23.325Z,5.40
2022-11-23T14:55:49.782Z,5.33
2022-11-23T14:58:16.188Z,5.33
2022-11-23T15:00:43.792Z,5.27
2022-11-23T15:03:48.706Z,5.20
2022-11-23T15:06:10.641Z,5.14
2022-11-23T15:08:43.152Z,5.08
2022-11-23T15:11:21.248Z,5.02
2022-11-23T15:13:48.931Z,4.99
2022-11-23T15:16:16.453Z,5.03
2022-11-23T15:18:43.203Z,4.94
2022-11-23T15:21:09.605Z,4.93
2022-11-23T15:23:37.104Z,4.84
2022-11-23T15:26:05.258Z,4.86
2022-11-23T15:28:33.129Z,4.85
2022-11-23T15:30:59.585Z,4.82
2022-11-23T15:33:26.314Z,4.79
2022-11-23T15:35:53.303Z,4.83
2022-11-23T15:38:23.616Z,4.88
2022-11-23T15:40:50.719Z,4.86
2022-11-23T15:43:18.298Z,4.91
2022-11-23T15:45:58.842Z,4.93
2022-11-23T15:48:29.682Z,4.91
2022-11-23T15:51:06.147Z,4.87
2022-11-23T15:53:33.128Z,4.81
2022-11-23T15:56:00.808Z,4.79
2022-11-23T15:58:27.243Z,4.71
2022-11-23T16:00:55.160Z,4.73
2022-11-23T16:03:32.498Z,4.78
2022-11-23T16:06:11.207Z,4.74
2022-11-23T16:08:37.742Z,4.76
2022-11-23T16:11:04.704Z,4.88
2022-11-23T16:13:35.159Z,4.95
2022-11-23T16:16:01.658Z,4.99
2022-11-23T16:18:28.077Z,4.99
2022-11-23T16:20:55.500Z,5.02
2022-11-23T16:23:25.968Z,5.03
2022-11-23T16:25:57.260Z,5.04
2022-11-23T16:28:27.208Z,5.09
2022-11-23T16:30:53.716Z,5.04
2022-11-23T16:33:20.529Z,5.03
2022-11-23T16:35:47.297Z,5.04
2022-11-23T16:38:13.816Z,4.96
2022-11-23T16:40:40.735Z,5.03
2022-11-23T16:43:07.730Z,4.95
2022-11-23T16:45:34.222Z,4.90
2022-11-23T16:48:01.916Z,4.85
2022-11-23T16:50:29.467Z,4.78
2022-11-23T16:52:56.065Z,4.66
2022-11-23T16:55:22.532Z,4.54
2022-11-23T16:57:49.083Z,4.46
2022-11-23T17:00:19.748Z,4.40
2022-11-23T17:02:46.313Z,4.34
2022-11-23T17:05:16.622Z,4.28
2022-11-23T17:07:43.290Z,4.29
2022-11-23T17:10:10.307Z,4.33
2022-11-23T17:12:37.114Z,4.32
2022-11-23T17:15:03.868Z,4.30
2022-11-23T17:17:30.352Z,4.28
2022-11-23T17:20:02.488Z,4.27
2022-11-23T17:22:30.477Z,4.26
2022-11-23T17:24:56.924Z,4.32
2022-11-23T17:27:24.165Z,4.35
2022-11-23T17:30:00.334Z,4.34
2022-11-23T17:32:26.915Z,4.37
2022-11-23T17:34:53.584Z,4.40
2022-11-23T17:37:21.392Z,4.37
2022-11-23T17:39:48.243Z,4.42
2022-11-23T17:42:14.808Z,4.45
2022-11-23T17:44:41.346Z,4.46
2022-11-23T17:47:08.146Z,4.43
2022-11-23T17:49:35.062Z,4.39
2022-11-23T17:52:01.649Z,4.32
2022-11-23T17:54:28.073Z,4.34
2022-11-23T17:56:54.497Z,4.28
2022-11-23T17:59:20.938Z,4.29
2022-11-23T18:01:47.866Z,4.29
2022-11-23T18:04:14.375Z,4.24
2022-11-23T18:06:40.844Z,4.24
2022-11-23T18:09:07.411Z,4.20
2022-11-23T18:11:33.853Z,4.22
2022-11-23T18:14:00.328Z,4.22
2022-11-23T18:16:26.918Z,4.22
2022-11-23T18:18:53.519Z,4.14
2022-11-23T18:21:19.924Z,4.04
2022-11-23T18:23:46.398Z,3.88
2022-11-23T18:26:14.690Z,3.77
2022-11-23T18:28:41.093Z,3.70
2022-11-23T18:31:07.952Z,3.65
2022-11-23T18:33:34.652Z,3.60
2022-11-23T18:36:05.319Z,3.49
2022-11-23T18:38:32.500Z,3.59
2022-11-23T18:40:58.887Z,3.52
2022-11-23T18:43:25.381Z,3.47
2022-11-23T18:45:51.782Z,3.44
2022-11-23T18:48:18.244Z,3.45
2022-11-23T18:50:44.766Z,3.46
2022-11-23T18:53:11.558Z,3.44
2022-11-23T18:55:38.025Z,3.46
2022-11-23T18:58:04.482Z,3.46
2022-11-23T19:00:30.909Z,3.46
2022-11-23T19:02:58.235Z,3.50
2022-11-23T19:05:25.321Z,3.49
2022-11-23T19:07:51.858Z,3.56
2022-11-23T19:10:18.737Z,3.55
2022-11-23T19:12:45.287Z,3.55
